sensor_id;sensor_type;location;lat;lon;timestamp;temperature;humidity
7846;DHT22;3968;51.424;6.788;2023-02-15T00:01:11;5.50;99.90
7846;DHT22;3968;51.424;6.788;2023-02-15T00:03:37;5.50;99.90
7846;DHT22;3968;51.424;6.788;2023-02-15T00:06:03;5.50;99.90
7846;DHT22;3968;51.424;6.788;2023-02-15T00:08:29;5.40;99.90
7846;DHT22;3968;51.424;6.788;2023-02-15T00:11:09;5.40;99.90
7846;DHT22;3968;51.424;6.788;2023-02-15T00:13:35;5.40;99.90
7846;DHT22;3968;51.424;6.788;2023-02-15T00:16:03;5.40;99.90
7846;DHT22;3968;51.424;6.788;2023-02-15T00:18:29;5.40;99.90
7846;DHT22;3968;51.424;6.788;2023-02-15T00:20:55;5.30;99.90
7846;DHT22;3968;51.424;6.788;2023-02-15T00:23:21;5.30;99.90
7846;DHT22;3968;51.424;6.788;2023-02-15T00:25:46;5.20;99.90
7846;DHT22;3968;51.424;6.788;2023-02-15T00:28:12;5.20;99.90
7846;DHT22;3968;51.424;6.788;2023-02-15T00:30:38;5.20;99.90
7846;DHT22;3968;51.424;6.788;2023-02-15T00:33:03;5.10;99.90
7846;DHT22;3968;51.424;6.788;2023-02-15T00:35:29;5.20;99.90
7846;DHT22;3968;51.424;6.788;2023-02-15T00:37:56;5.20;99.90
7846;DHT22;3968;51.424;6.788;2023-02-15T00:40:22;5.20;99.90
7846;DHT22;3968;51.424;6.788;2023-02-15T00:42:47;5.20;99.90
7846;DHT22;3968;51.424;6.788;2023-02-15T00:45:13;5.20;99.90
7846;DHT22;3968;51.424;6.788;2023-02-15T00:47:38;5.20;99.90
7846;DHT22;3968;51.424;6.788;2023-02-15T00:50:05;5.20;99.90
7846;DHT22;3968;51.424;6.788;2023-02-15T00:52:30;5.20;99.90
7846;DHT22;3968;51.424;6.788;2023-02-15T00:54:56;5.20;99.90
7846;DHT22;3968;51.424;6.788;2023-02-15T00:57:22;5.20;99.90
7846;DHT22;3968;51.424;6.788;2023-02-15T00:59:47;5.20;99.90
7846;DHT22;3968;51.424;6.788;2023-02-15T01:02:13;5.10;99.90
7846;DHT22;3968;51.424;6.788;2023-02-15T01:04:39;5.10;99.90
7846;DHT22;3968;51.424;6.788;2023-02-15T01:07:04;5.10;99.90
7846;DHT22;3968;51.424;6.788;2023-02-15T01:09:30;5.10;99.90
7846;DHT22;3968;51.424;6.788;2023-02-15T01:11:55;5.10;99.90
7846;DHT22;3968;51.424;6.788;2023-02-15T01:14:22;5.10;99.90
7846;DHT22;3968;51.424;6.788;2023-02-15T01:16:48;5.10;99.90
7846;DHT22;3968;51.424;6.788;2023-02-15T01:19:13;5.10;99.90
7846;DHT22;3968;51.424;6.788;2023-02-15T01:21:39;5.10;99.90
7846;DHT22;3968;51.424;6.788;2023-02-15T01:24:11;5.10;99.90
7846;DHT22;3968;51.424;6.788;2023-02-15T01:26:37;5.10;99.90
7846;DHT22;3968;51.424;6.788;2023-02-15T01:29:03;5.10;99.90
7846;DHT22;3968;51.424;6.788;2023-02-15T01:31:28;5.10;99.90
7846;DHT22;3968;51.424;6.788;2023-02-15T01:33:54;5.10;99.90
7846;DHT22;3968;51.424;6.788;2023-02-15T01:36:19;5.10;99.90
7846;DHT22;3968;51.424;6.788;2023-02-15T01:38:45;5.00;99.90
7846;DHT22;3968;51.424;6.788;2023-02-15T01:41:11;5.00;99.90
7846;DHT22;3968;51.424;6.788;2023-02-15T01:43:50;5.00;99.90
7846;DHT22;3968;51.424;6.788;2023-02-15T01:46:18;5.00;99.90
7846;DHT22;3968;51.424;6.788;2023-02-15T01:48:47;5.00;99.90
7846;DHT22;3968;51.424;6.788;2023-02-15T01:51:15;5.00;99.90
7846;DHT22;3968;51.424;6.788;2023-02-15T01:53:52;4.90;99.90
7846;DHT22;3968;51.424;6.788;2023-02-15T01:56:22;5.00;99.90
7846;DHT22;3968;51.424;6.788;2023-02-15T01:58:49;5.00;99.90
7846;DHT22;3968;51.424;6.788;2023-02-15T02:01:16;5.00;99.90
7846;DHT22;3968;51.424;6.788;2023-02-15T02:06:30;5.00;99.90
7846;DHT22;3968;51.424;6.788;2023-02-15T02:08:56;4.90;99.90
7846;DHT22;3968;51.424;6.788;2023-02-15T02:11:22;4.90;99.90
7846;DHT22;3968;51.424;6.788;2023-02-15T02:13:50;4.90;99.90
7846;DHT22;3968;51.424;6.788;2023-02-15T02:16:30;4.90;99.90
7846;DHT22;3968;51.424;6.788;2023-02-15T02:27:28;4.80;99.90
7846;DHT22;3968;51.424;6.788;2023-02-15T02:35:44;4.70;99.90
7846;DHT22;3968;51.424;6.788;2023-02-15T02:44:22;4.60;99.90
7846;DHT22;3968;51.424;6.788;2023-02-15T02:46:50;4.60;99.90
7846;DHT22;3968;51.424;6.788;2023-02-15T02:49:45;4.60;99.90
7846;DHT22;3968;51.424;6.788;2023-02-15T02:52:43;4.60;99.90
7846;DHT22;3968;51.424;6.788;2023-02-15T03:00:25;4.60;99.90
7846;DHT22;3968;51.424;6.788;2023-02-15T03:03:01;4.50;99.90
7846;DHT22;3968;51.424;6.788;2023-02-15T03:05:32;4.40;99.90
7846;DHT22;3968;51.424;6.788;2023-02-15T03:08:02;4.40;99.90
7846;DHT22;3968;51.424;6.788;2023-02-15T03:10:33;4.40;99.90
7846;DHT22;3968;51.424;6.788;2023-02-15T03:13:00;4.40;99.90
7846;DHT22;3968;51.424;6.788;2023-02-15T03:15:30;4.40;99.90
7846;DHT22;3968;51.424;6.788;2023-02-15T03:18:18;4.40;99.90
7846;DHT22;3968;51.424;6.788;2023-02-15T03:20:46;4.40;99.90
7846;DHT22;3968;51.424;6.788;2023-02-15T03:23:17;4.30;99.90
7846;DHT22;3968;51.424;6.788;2023-02-15T03:25:48;4.40;99.90
7846;DHT22;3968;51.424;6.788;2023-02-15T03:28:19;4.30;99.90
7846;DHT22;3968;51.424;6.788;2023-02-15T03:30:49;4.40;99.90
7846;DHT22;3968;51.424;6.788;2023-02-15T03:33:17;4.40;99.90
7846;DHT22;3968;51.424;6.788;2023-02-15T03:35:46;4.40;99.90
7846;DHT22;3968;51.424;6.788;2023-02-15T03:38:18;4.40;99.90
7846;DHT22;3968;51.424;6.788;2023-02-15T03:40:47;4.40;99.90
7846;DHT22;3968;51.424;6.788;2023-02-15T03:46:13;4.30;99.90
7846;DHT22;3968;51.424;6.788;2023-02-15T03:49:02;4.30;99.90
7846;DHT22;3968;51.424;6.788;2023-02-15T03:51:33;4.30;99.90
7846;DHT22;3968;51.424;6.788;2023-02-15T03:54:21;4.30;99.90
7846;DHT22;3968;51.424;6.788;2023-02-15T03:57:16;4.20;99.90
7846;DHT22;3968;51.424;6.788;2023-02-15T04:00:22;4.20;99.90
7846;DHT22;3968;51.424;6.788;2023-02-15T04:03:10;4.20;99.90
7846;DHT22;3968;51.424;6.788;2023-02-15T04:05:37;4.20;99.90
7846;DHT22;3968;51.424;6.788;2023-02-15T04:08:03;4.20;99.90
7846;DHT22;3968;51.424;6.788;2023-02-15T04:10:29;4.30;99.90
7846;DHT22;3968;51.424;6.788;2023-02-15T04:13:13;4.30;99.90
7846;DHT22;3968;51.424;6.788;2023-02-15T04:15:39;4.20;99.90
7846;DHT22;3968;51.424;6.788;2023-02-15T04:18:23;4.20;99.90
7846;DHT22;3968;51.424;6.788;2023-02-15T04:21:07;4.20;99.90
7846;DHT22;3968;51.424;6.788;2023-02-15T04:23:51;4.20;99.90
7846;DHT22;3968;51.424;6.788;2023-02-15T04:26:35;4.20;99.90
7846;DHT22;3968;51.424;6.788;2023-02-15T04:29:01;4.20;99.90
7846;DHT22;3968;51.424;6.788;2023-02-15T04:31:27;4.10;99.90
7846;DHT22;3968;51.424;6.788;2023-02-15T04:33:52;4.10;99.90
7846;DHT22;3968;51.424;6.788;2023-02-15T04:36:18;4.10;99.90
7846;DHT22;3968;51.424;6.788;2023-02-15T04:38:43;4.20;99.90
7846;DHT22;3968;51.424;6.788;2023-02-15T04:41:09;4.10;99.90
7846;DHT22;3968;51.424;6.788;2023-02-15T04:43:36;4.10;99.90
7846;DHT22;3968;51.424;6.788;2023-02-15T04:46:02;4.10;99.90
7846;DHT22;3968;51.424;6.788;2023-02-15T04:48:28;4.10;99.90
7846;DHT22;3968;51.424;6.788;2023-02-15T04:50:53;4.10;99.90
7846;DHT22;3968;51.424;6.788;2023-02-15T04:53:19;4.00;99.90
7846;DHT22;3968;51.424;6.788;2023-02-15T04:55:44;4.00;99.90
7846;DHT22;3968;51.424;6.788;2023-02-15T04:58:10;3.90;99.90
7846;DHT22;3968;51.424;6.788;2023-02-15T05:00:35;3.90;99.90
7846;DHT22;3968;51.424;6.788;2023-02-15T05:03:01;3.90;99.90
7846;DHT22;3968;51.424;6.788;2023-02-15T05:05:27;3.90;99.90
7846;DHT22;3968;51.424;6.788;2023-02-15T05:07:53;3.90;99.90
7846;DHT22;3968;51.424;6.788;2023-02-15T05:10:18;3.80;99.90
7846;DHT22;3968;51.424;6.788;2023-02-15T05:12:44;3.80;99.90
7846;DHT22;3968;51.424;6.788;2023-02-15T05:15:09;3.80;99.90
7846;DHT22;3968;51.424;6.788;2023-02-15T05:17:35;3.90;99.90
7846;DHT22;3968;51.424;6.788;2023-02-15T05:20:01;3.90;99.90
7846;DHT22;3968;51.424;6.788;2023-02-15T05:22:26;3.90;99.90
7846;DHT22;3968;51.424;6.788;2023-02-15T05:24:52;3.90;99.90
7846;DHT22;3968;51.424;6.788;2023-02-15T05:27:36;3.90;99.90
7846;DHT22;3968;51.424;6.788;2023-02-15T05:30:20;3.90;99.90
7846;DHT22;3968;51.424;6.788;2023-02-15T05:32:46;3.90;99.90
7846;DHT22;3968;51.424;6.788;2023-02-15T05:35:14;3.90;99.90
7846;DHT22;3968;51.424;6.788;2023-02-15T05:37:40;3.90;99.90
7846;DHT22;3968;51.424;6.788;2023-02-15T05:40:06;3.90;99.90
7846;DHT22;3968;51.424;6.788;2023-02-15T05:42:32;3.80;99.90
7846;DHT22;3968;51.424;6.788;2023-02-15T05:44:57;3.70;99.90
7846;DHT22;3968;51.424;6.788;2023-02-15T05:47:23;3.70;99.90
7846;DHT22;3968;51.424;6.788;2023-02-15T05:49:49;3.70;99.90
7846;DHT22;3968;51.424;6.788;2023-02-15T05:52:14;3.70;99.90
7846;DHT22;3968;51.424;6.788;2023-02-15T05:54:40;3.70;99.90
7846;DHT22;3968;51.424;6.788;2023-02-15T05:57:05;3.70;99.90
7846;DHT22;3968;51.424;6.788;2023-02-15T05:59:31;3.80;99.90
7846;DHT22;3968;51.424;6.788;2023-02-15T06:01:56;3.80;99.90
7846;DHT22;3968;51.424;6.788;2023-02-15T06:04:22;3.80;99.90
7846;DHT22;3968;51.424;6.788;2023-02-15T06:06:48;3.80;99.90
7846;DHT22;3968;51.424;6.788;2023-02-15T06:09:13;3.80;99.90
7846;DHT22;3968;51.424;6.788;2023-02-15T06:11:39;3.80;99.90
7846;DHT22;3968;51.424;6.788;2023-02-15T06:14:05;3.80;99.90
7846;DHT22;3968;51.424;6.788;2023-02-15T06:16:30;3.80;99.90
7846;DHT22;3968;51.424;6.788;2023-02-15T06:18:56;3.70;99.90
7846;DHT22;3968;51.424;6.788;2023-02-15T06:21:22;3.70;99.90
7846;DHT22;3968;51.424;6.788;2023-02-15T06:23:47;3.80;99.90
7846;DHT22;3968;51.424;6.788;2023-02-15T06:26:13;3.80;99.90
7846;DHT22;3968;51.424;6.788;2023-02-15T06:28:39;3.80;99.90
7846;DHT22;3968;51.424;6.788;2023-02-15T06:31:06;3.80;99.90
7846;DHT22;3968;51.424;6.788;2023-02-15T06:33:32;3.90;99.90
7846;DHT22;3968;51.424;6.788;2023-02-15T06:35:59;3.90;99.90
7846;DHT22;3968;51.424;6.788;2023-02-15T06:38:25;4.00;99.90
7846;DHT22;3968;51.424;6.788;2023-02-15T06:40:50;4.00;99.90
7846;DHT22;3968;51.424;6.788;2023-02-15T06:43:16;4.00;99.90
7846;DHT22;3968;51.424;6.788;2023-02-15T06:45:41;4.10;99.90
7846;DHT22;3968;51.424;6.788;2023-02-15T06:48:07;4.10;99.90
7846;DHT22;3968;51.424;6.788;2023-02-15T06:50:34;4.10;99.90
7846;DHT22;3968;51.424;6.788;2023-02-15T06:53:00;4.10;99.90
7846;DHT22;3968;51.424;6.788;2023-02-15T06:55:26;4.10;99.90
7846;DHT22;3968;51.424;6.788;2023-02-15T06:57:51;4.10;99.90
7846;DHT22;3968;51.424;6.788;2023-02-15T07:00:17;4.10;99.90
7846;DHT22;3968;51.424;6.788;2023-02-15T07:02:44;4.00;99.90
7846;DHT22;3968;51.424;6.788;2023-02-15T07:05:09;4.10;99.90
7846;DHT22;3968;51.424;6.788;2023-02-15T07:07:35;4.00;99.90
7846;DHT22;3968;51.424;6.788;2023-02-15T07:10:01;4.00;99.90
7846;DHT22;3968;51.424;6.788;2023-02-15T07:12:26;4.00;99.90
7846;DHT22;3968;51.424;6.788;2023-02-15T07:15:09;4.00;99.90
7846;DHT22;3968;51.424;6.788;2023-02-15T07:17:36;4.00;99.90
7846;DHT22;3968;51.424;6.788;2023-02-15T07:20:08;4.00;99.90
7846;DHT22;3968;51.424;6.788;2023-02-15T07:22:35;4.00;99.90
7846;DHT22;3968;51.424;6.788;2023-02-15T07:25:05;4.00;99.90
7846;DHT22;3968;51.424;6.788;2023-02-15T07:27:31;4.00;99.90
7846;DHT22;3968;51.424;6.788;2023-02-15T07:29:57;4.00;99.90
7846;DHT22;3968;51.424;6.788;2023-02-15T07:32:23;4.10;99.90
7846;DHT22;3968;51.424;6.788;2023-02-15T07:34:48;4.10;99.90
7846;DHT22;3968;51.424;6.788;2023-02-15T07:37:14;4.20;99.90
7846;DHT22;3968;51.424;6.788;2023-02-15T07:39:40;4.20;99.90
7846;DHT22;3968;51.424;6.788;2023-02-15T07:42:05;4.30;99.90
7846;DHT22;3968;51.424;6.788;2023-02-15T07:44:31;4.30;99.90
7846;DHT22;3968;51.424;6.788;2023-02-15T07:46:56;4.30;99.90
7846;DHT22;3968;51.424;6.788;2023-02-15T07:49:22;4.40;99.90
7846;DHT22;3968;51.424;6.788;2023-02-15T07:51:48;4.40;99.90
7846;DHT22;3968;51.424;6.788;2023-02-15T07:54:14;4.40;99.90
7846;DHT22;3968;51.424;6.788;2023-02-15T07:56:39;4.50;99.90
7846;DHT22;3968;51.424;6.788;2023-02-15T07:59:05;4.50;99.90
7846;DHT22;3968;51.424;6.788;2023-02-15T08:01:33;4.50;99.90
7846;DHT22;3968;51.424;6.788;2023-02-15T08:03:59;4.50;99.90
7846;DHT22;3968;51.424;6.788;2023-02-15T08:06:27;4.60;99.90
7846;DHT22;3968;51.424;6.788;2023-02-15T08:08:53;4.60;99.90
7846;DHT22;3968;51.424;6.788;2023-02-15T08:16:53;4.80;99.90
7846;DHT22;3968;51.424;6.788;2023-02-15T08:19:29;4.80;99.90
7846;DHT22;3968;51.424;6.788;2023-02-15T08:21:57;4.90;99.90
7846;DHT22;3968;51.424;6.788;2023-02-15T08:24:28;4.90;99.90
7846;DHT22;3968;51.424;6.788;2023-02-15T08:26:54;5.00;99.90
7846;DHT22;3968;51.424;6.788;2023-02-15T08:29:22;5.00;99.90
7846;DHT22;3968;51.424;6.788;2023-02-15T08:31:49;5.00;99.90
7846;DHT22;3968;51.424;6.788;2023-02-15T08:34:17;5.10;99.90
7846;DHT22;3968;51.424;6.788;2023-02-15T08:36:43;5.10;99.90
7846;DHT22;3968;51.424;6.788;2023-02-15T08:39:14;5.20;99.90
7846;DHT22;3968;51.424;6.788;2023-02-15T08:41:44;5.20;99.90
7846;DHT22;3968;51.424;6.788;2023-02-15T08:44:10;5.30;99.90
7846;DHT22;3968;51.424;6.788;2023-02-15T08:46:38;5.30;99.90
7846;DHT22;3968;51.424;6.788;2023-02-15T08:49:05;5.30;99.90
7846;DHT22;3968;51.424;6.788;2023-02-15T08:51:33;5.40;99.90
7846;DHT22;3968;51.424;6.788;2023-02-15T08:54:04;5.40;99.90
7846;DHT22;3968;51.424;6.788;2023-02-15T08:56:34;5.50;99.90
7846;DHT22;3968;51.424;6.788;2023-02-15T08:59:00;5.50;99.90
7846;DHT22;3968;51.424;6.788;2023-02-15T09:01:30;5.60;99.90
7846;DHT22;3968;51.424;6.788;2023-02-15T09:03:59;5.60;99.90
7846;DHT22;3968;51.424;6.788;2023-02-15T09:06:26;5.60;99.90
7846;DHT22;3968;51.424;6.788;2023-02-15T09:08:53;5.60;99.90
7846;DHT22;3968;51.424;6.788;2023-02-15T09:13:51;5.80;99.90
7846;DHT22;3968;51.424;6.788;2023-02-15T09:16:17;5.80;99.90
7846;DHT22;3968;51.424;6.788;2023-02-15T09:18:43;5.90;99.90
7846;DHT22;3968;51.424;6.788;2023-02-15T09:21:11;5.90;99.90
7846;DHT22;3968;51.424;6.788;2023-02-15T09:23:39;6.00;99.90
7846;DHT22;3968;51.424;6.788;2023-02-15T09:26:10;6.00;99.90
7846;DHT22;3968;51.424;6.788;2023-02-15T09:28:36;6.10;99.90
7846;DHT22;3968;51.424;6.788;2023-02-15T09:31:23;6.10;99.90
7846;DHT22;3968;51.424;6.788;2023-02-15T09:33:49;6.20;99.90
7846;DHT22;3968;51.424;6.788;2023-02-15T09:36:23;6.20;99.90
7846;DHT22;3968;51.424;6.788;2023-02-15T09:38:58;6.30;99.90
7846;DHT22;3968;51.424;6.788;2023-02-15T09:47:18;6.40;99.90
7846;DHT22;3968;51.424;6.788;2023-02-15T09:55:05;6.60;99.90
7846;DHT22;3968;51.424;6.788;2023-02-15T09:57:38;6.70;99.90
7846;DHT22;3968;51.424;6.788;2023-02-15T10:11:29;7.20;99.90
7846;DHT22;3968;51.424;6.788;2023-02-15T10:14:49;7.20;99.90
7846;DHT22;3968;51.424;6.788;2023-02-15T10:26:18;7.50;99.90
7846;DHT22;3968;51.424;6.788;2023-02-15T10:31:27;7.60;99.90
7846;DHT22;3968;51.424;6.788;2023-02-15T10:34:30;7.60;99.90
7846;DHT22;3968;51.424;6.788;2023-02-15T10:53:13;8.10;99.90
7846;DHT22;3968;51.424;6.788;2023-02-15T10:58:26;8.20;99.90
7846;DHT22;3968;51.424;6.788;2023-02-15T11:06:28;8.30;99.90
7846;DHT22;3968;51.424;6.788;2023-02-15T11:08:57;8.40;99.90
7846;DHT22;3968;51.424;6.788;2023-02-15T11:11:36;8.40;99.90
7846;DHT22;3968;51.424;6.788;2023-02-15T11:14:24;8.40;99.90
7846;DHT22;3968;51.424;6.788;2023-02-15T11:16:59;8.50;99.90
7846;DHT22;3968;51.424;6.788;2023-02-15T11:19:34;8.50;99.90
7846;DHT22;3968;51.424;6.788;2023-02-15T11:22:03;8.60;99.90
7846;DHT22;3968;51.424;6.788;2023-02-15T11:24:33;8.70;99.90
7846;DHT22;3968;51.424;6.788;2023-02-15T11:32:33;8.80;99.90
7846;DHT22;3968;51.424;6.788;2023-02-15T11:40:28;9.00;99.90
7846;DHT22;3968;51.424;6.788;2023-02-15T11:43:39;9.00;99.90
7846;DHT22;3968;51.424;6.788;2023-02-15T11:45:58;9.00;99.90
7846;DHT22;3968;51.424;6.788;2023-02-15T11:48:24;9.10;99.90
7846;DHT22;3968;51.424;6.788;2023-02-15T11:50:49;9.10;99.90
7846;DHT22;3968;51.424;6.788;2023-02-15T11:53:17;9.10;99.90
7846;DHT22;3968;51.424;6.788;2023-02-15T11:55:45;9.20;99.90
7846;DHT22;3968;51.424;6.788;2023-02-15T12:01:11;9.20;99.90
7846;DHT22;3968;51.424;6.788;2023-02-15T12:03:48;9.20;99.90
7846;DHT22;3968;51.424;6.788;2023-02-15T12:06:38;9.30;99.90
7846;DHT22;3968;51.424;6.788;2023-02-15T12:11:41;9.30;99.90
7846;DHT22;3968;51.424;6.788;2023-02-15T12:14:11;9.40;99.90
7846;DHT22;3968;51.424;6.788;2023-02-15T12:16:46;9.30;99.90
7846;DHT22;3968;51.424;6.788;2023-02-15T12:19:31;9.30;99.90
7846;DHT22;3968;51.424;6.788;2023-02-15T12:21:59;9.40;99.90
7846;DHT22;3968;51.424;6.788;2023-02-15T12:24:38;9.40;99.90
7846;DHT22;3968;51.424;6.788;2023-02-15T12:27:20;9.40;99.90
7846;DHT22;3968;51.424;6.788;2023-02-15T12:29:57;9.40;99.90
7846;DHT22;3968;51.424;6.788;2023-02-15T12:32:26;9.50;99.90
7846;DHT22;3968;51.424;6.788;2023-02-15T12:34:59;9.50;99.90
7846;DHT22;3968;51.424;6.788;2023-02-15T12:37:27;9.60;99.90
7846;DHT22;3968;51.424;6.788;2023-02-15T12:39:58;9.60;99.90
7846;DHT22;3968;51.424;6.788;2023-02-15T12:42:25;9.60;99.90
7846;DHT22;3968;51.424;6.788;2023-02-15T12:45:00;9.70;99.90
7846;DHT22;3968;51.424;6.788;2023-02-15T12:47:30;9.70;99.90
7846;DHT22;3968;51.424;6.788;2023-02-15T12:50:22;9.70;99.90
7846;DHT22;3968;51.424;6.788;2023-02-15T12:52:50;9.80;99.90
7846;DHT22;3968;51.424;6.788;2023-02-15T12:55:23;9.80;99.90
7846;DHT22;3968;51.424;6.788;2023-02-15T12:58:17;9.80;99.90
7846;DHT22;3968;51.424;6.788;2023-02-15T13:00:44;9.80;99.90
7846;DHT22;3968;51.424;6.788;2023-02-15T13:03:18;9.90;99.90
7846;DHT22;3968;51.424;6.788;2023-02-15T13:05:46;9.80;99.90
7846;DHT22;3968;51.424;6.788;2023-02-15T13:08:19;9.90;99.90
7846;DHT22;3968;51.424;6.788;2023-02-15T13:11:19;10.00;99.90
7846;DHT22;3968;51.424;6.788;2023-02-15T13:13:55;10.00;99.90
7846;DHT22;3968;51.424;6.788;2023-02-15T13:16:36;10.00;99.90
7846;DHT22;3968;51.424;6.788;2023-02-15T13:19:19;10.10;99.90
7846;DHT22;3968;51.424;6.788;2023-02-15T13:21:51;10.10;99.90
7846;DHT22;3968;51.424;6.788;2023-02-15T13:24:37;10.10;99.90
7846;DHT22;3968;51.424;6.788;2023-02-15T13:27:04;10.10;99.90
7846;DHT22;3968;51.424;6.788;2023-02-15T13:29:34;10.20;99.90
7846;DHT22;3968;51.424;6.788;2023-02-15T13:32:15;10.20;99.90
7846;DHT22;3968;51.424;6.788;2023-02-15T13:34:47;10.20;99.90
7846;DHT22;3968;51.424;6.788;2023-02-15T13:42:52;10.30;99.90
7846;DHT22;3968;51.424;6.788;2023-02-15T13:48:20;10.40;98.40
7846;DHT22;3968;51.424;6.788;2023-02-15T13:59:34;10.50;97.70
7846;DHT22;3968;51.424;6.788;2023-02-15T14:15:49;10.70;92.10
7846;DHT22;3968;51.424;6.788;2023-02-15T14:18:35;10.80;91.40
7846;DHT22;3968;51.424;6.788;2023-02-15T14:26:59;10.80;90.70
7846;DHT22;3968;51.424;6.788;2023-02-15T14:32:07;10.80;88.50
7846;DHT22;3968;51.424;6.788;2023-02-15T14:34:54;10.80;86.80
7846;DHT22;3968;51.424;6.788;2023-02-15T14:37:45;10.80;85.40
7846;DHT22;3968;51.424;6.788;2023-02-15T14:49:11;10.80;76.60
7846;DHT22;3968;51.424;6.788;2023-02-15T14:59:55;10.80;78.80
7846;DHT22;3968;51.424;6.788;2023-02-15T15:02:45;10.80;79.50
7846;DHT22;3968;51.424;6.788;2023-02-15T15:07:54;10.80;81.90
7846;DHT22;3968;51.424;6.788;2023-02-15T15:12:53;10.80;84.60
7846;DHT22;3968;51.424;6.788;2023-02-15T15:18:06;10.90;88.60
7846;DHT22;3968;51.424;6.788;2023-02-15T15:20:49;10.90;89.80
7846;DHT22;3968;51.424;6.788;2023-02-15T15:25:49;10.90;90.10
7846;DHT22;3968;51.424;6.788;2023-02-15T15:34:18;10.90;91.10
7846;DHT22;3968;51.424;6.788;2023-02-15T15:44:59;10.80;93.70
7846;DHT22;3968;51.424;6.788;2023-02-15T15:50:19;10.80;95.60
7846;DHT22;3968;51.424;6.788;2023-02-15T15:52:51;10.80;96.80
7846;DHT22;3968;51.424;6.788;2023-02-15T15:55:20;10.70;97.50
7846;DHT22;3968;51.424;6.788;2023-02-15T15:57:50;10.70;98.40
7846;DHT22;3968;51.424;6.788;2023-02-15T16:02:57;10.60;99.90
7846;DHT22;3968;51.424;6.788;2023-02-15T16:05:22;10.60;99.90
7846;DHT22;3968;51.424;6.788;2023-02-15T16:07:48;10.60;99.90
7846;DHT22;3968;51.424;6.788;2023-02-15T16:10:33;10.50;99.90
7846;DHT22;3968;51.424;6.788;2023-02-15T16:13:01;10.50;99.90
7846;DHT22;3968;51.424;6.788;2023-02-15T16:15:43;10.40;99.90
7846;DHT22;3968;51.424;6.788;2023-02-15T16:18:15;10.40;99.90
7846;DHT22;3968;51.424;6.788;2023-02-15T16:20:49;10.30;99.90
7846;DHT22;3968;51.424;6.788;2023-02-15T16:28:58;10.20;99.90
7846;DHT22;3968;51.424;6.788;2023-02-15T16:31:24;10.10;99.90
7846;DHT22;3968;51.424;6.788;2023-02-15T16:33:53;10.10;99.90
7846;DHT22;3968;51.424;6.788;2023-02-15T16:36:27;10.00;99.90
7846;DHT22;3968;51.424;6.788;2023-02-15T16:41:25;9.90;99.90
7846;DHT22;3968;51.424;6.788;2023-02-15T16:43:53;9.80;99.90
7846;DHT22;3968;51.424;6.788;2023-02-15T16:46:24;9.80;99.90
7846;DHT22;3968;51.424;6.788;2023-02-15T16:48:53;9.70;99.90
7846;DHT22;3968;51.424;6.788;2023-02-15T16:51:25;9.70;99.90
7846;DHT22;3968;51.424;6.788;2023-02-15T16:53:52;9.60;99.90
7846;DHT22;3968;51.424;6.788;2023-02-15T16:56:24;9.60;99.90
7846;DHT22;3968;51.424;6.788;2023-02-15T16:58:54;9.50;99.90
7846;DHT22;3968;51.424;6.788;2023-02-15T17:01:22;9.50;99.90
7846;DHT22;3968;51.424;6.788;2023-02-15T17:03:51;9.50;99.90
7846;DHT22;3968;51.424;6.788;2023-02-15T17:06:23;9.40;99.90
7846;DHT22;3968;51.424;6.788;2023-02-15T17:08:51;9.40;99.90
7846;DHT22;3968;51.424;6.788;2023-02-15T17:11:19;9.40;99.90
7846;DHT22;3968;51.424;6.788;2023-02-15T17:16:31;9.30;99.90
7846;DHT22;3968;51.424;6.788;2023-02-15T17:19:00;9.30;99.90
7846;DHT22;3968;51.424;6.788;2023-02-15T17:21:31;9.30;99.90
7846;DHT22;3968;51.424;6.788;2023-02-15T17:24:00;9.20;99.90
7846;DHT22;3968;51.424;6.788;2023-02-15T17:26:32;9.20;99.90
7846;DHT22;3968;51.424;6.788;2023-02-15T17:31:58;9.20;99.90
7846;DHT22;3968;51.424;6.788;2023-02-15T17:40:20;9.20;99.90
7846;DHT22;3968;51.424;6.788;2023-02-15T17:42:46;9.20;99.90
7846;DHT22;3968;51.424;6.788;2023-02-15T17:45:12;9.10;99.90
7846;DHT22;3968;51.424;6.788;2023-02-15T17:47:38;9.10;99.90
7846;DHT22;3968;51.424;6.788;2023-02-15T17:50:06;9.10;99.90
7846;DHT22;3968;51.424;6.788;2023-02-15T17:52:32;9.10;99.90
7846;DHT22;3968;51.424;6.788;2023-02-15T17:54:59;9.10;99.90
7846;DHT22;3968;51.424;6.788;2023-02-15T17:58:01;9.10;99.90
7846;DHT22;3968;51.424;6.788;2023-02-15T18:00:27;9.00;99.90
7846;DHT22;3968;51.424;6.788;2023-02-15T18:03:12;9.00;99.90
7846;DHT22;3968;51.424;6.788;2023-02-15T18:05:57;9.00;99.90
7846;DHT22;3968;51.424;6.788;2023-02-15T18:08:41;9.00;99.90
7846;DHT22;3968;51.424;6.788;2023-02-15T18:11:26;9.00;99.90
7846;DHT22;3968;51.424;6.788;2023-02-15T18:14:01;9.00;99.90
7846;DHT22;3968;51.424;6.788;2023-02-15T18:16:33;9.00;99.90
7846;DHT22;3968;51.424;6.788;2023-02-15T18:18:59;8.90;99.90
7846;DHT22;3968;51.424;6.788;2023-02-15T18:21:26;8.90;99.90
7846;DHT22;3968;51.424;6.788;2023-02-15T18:23:51;8.90;99.90
7846;DHT22;3968;51.424;6.788;2023-02-15T18:26:24;8.90;99.90
7846;DHT22;3968;51.424;6.788;2023-02-15T18:28:50;8.90;99.90
7846;DHT22;3968;51.424;6.788;2023-02-15T18:31:16;8.90;99.90
7846;DHT22;3968;51.424;6.788;2023-02-15T18:33:53;8.90;99.90
7846;DHT22;3968;51.424;6.788;2023-02-15T18:36:41;8.90;99.90
7846;DHT22;3968;51.424;6.788;2023-02-15T18:39:30;8.90;99.90
7846;DHT22;3968;51.424;6.788;2023-02-15T18:41:58;8.90;99.90
7846;DHT22;3968;51.424;6.788;2023-02-15T18:44:25;8.80;99.90
7846;DHT22;3968;51.424;6.788;2023-02-15T18:46:50;8.80;99.90
7846;DHT22;3968;51.424;6.788;2023-02-15T18:49:16;8.80;99.90
7846;DHT22;3968;51.424;6.788;2023-02-15T18:51:42;8.80;99.90
7846;DHT22;3968;51.424;6.788;2023-02-15T18:54:23;8.80;99.90
7846;DHT22;3968;51.424;6.788;2023-02-15T18:56:57;8.70;99.90
7846;DHT22;3968;51.424;6.788;2023-02-15T18:59:24;8.70;99.90
7846;DHT22;3968;51.424;6.788;2023-02-15T19:01:50;8.70;99.90
7846;DHT22;3968;51.424;6.788;2023-02-15T19:04:16;8.70;99.90
7846;DHT22;3968;51.424;6.788;2023-02-15T19:06:46;8.70;99.90
7846;DHT22;3968;51.424;6.788;2023-02-15T19:09:23;8.70;99.90
7846;DHT22;3968;51.424;6.788;2023-02-15T19:11:53;8.60;99.90
7846;DHT22;3968;51.424;6.788;2023-02-15T19:14:27;8.60;99.90
7846;DHT22;3968;51.424;6.788;2023-02-15T19:16:53;8.50;99.90
7846;DHT22;3968;51.424;6.788;2023-02-15T19:19:19;8.50;99.90
7846;DHT22;3968;51.424;6.788;2023-02-15T19:21:45;8.50;99.90
7846;DHT22;3968;51.424;6.788;2023-02-15T19:24:37;8.50;99.90
7846;DHT22;3968;51.424;6.788;2023-02-15T19:27:05;8.50;99.90
7846;DHT22;3968;51.424;6.788;2023-02-15T19:29:31;8.50;99.90
7846;DHT22;3968;51.424;6.788;2023-02-15T19:31:57;8.50;99.90
7846;DHT22;3968;51.424;6.788;2023-02-15T19:34:23;8.40;99.90
7846;DHT22;3968;51.424;6.788;2023-02-15T19:36:51;8.40;99.90
7846;DHT22;3968;51.424;6.788;2023-02-15T19:39:27;8.40;99.90
7846;DHT22;3968;51.424;6.788;2023-02-15T19:41:53;8.30;99.90
7846;DHT22;3968;51.424;6.788;2023-02-15T19:44:19;8.30;99.90
7846;DHT22;3968;51.424;6.788;2023-02-15T19:46:45;8.30;99.90
7846;DHT22;3968;51.424;6.788;2023-02-15T19:49:11;8.30;99.90
7846;DHT22;3968;51.424;6.788;2023-02-15T19:51:38;8.30;99.90
7846;DHT22;3968;51.424;6.788;2023-02-15T19:54:23;8.30;99.90
7846;DHT22;3968;51.424;6.788;2023-02-15T19:56:51;8.30;99.90
7846;DHT22;3968;51.424;6.788;2023-02-15T20:01:47;8.20;99.90
7846;DHT22;3968;51.424;6.788;2023-02-15T20:04:13;8.20;99.90
7846;DHT22;3968;51.424;6.788;2023-02-15T20:06:39;8.20;99.90
7846;DHT22;3968;51.424;6.788;2023-02-15T20:09:04;8.20;99.90
7846;DHT22;3968;51.424;6.788;2023-02-15T20:11:31;8.20;99.90
7846;DHT22;3968;51.424;6.788;2023-02-15T20:13:57;8.20;99.90
7846;DHT22;3968;51.424;6.788;2023-02-15T20:16:22;8.10;99.90
7846;DHT22;3968;51.424;6.788;2023-02-15T20:18:50;8.10;99.90
7846;DHT22;3968;51.424;6.788;2023-02-15T20:21:16;8.10;99.90